Terminal Aerodrome Forecast
Issued by NWS

Home | Current Version | Previous Version | Text Only | Print | Product List | Glossary On
Versions: 1 2 3 4 5 6 7 8 9 10 11 12 13 14 15 16 17 18 19 20 21 22 23 24 25 26 27 28 29 30 31 32 33 34
000
FTUS45 KLKN 252320
TAFELY
TAF
KELY 252320Z 2600/2624 33018G28KT P6SM -SHSN SCT035 OVC050
      TEMPO 2600/2602 4SM -SHSN BKN025 OVC035
     FM260300 34008KT P6SM BKN035 BKN050
     FM262000 34012KT P6SM BKN050=

USA.gov is the U.S. government's official web portal to all federal, state and local government web resources and services.